Saiq, Oman
Current Conditions -  °F | °C
As of 10:52 AM on Saturday 20 Dec 2014 (Local Time) from EQMN Reporting Station
Few Clouds Few Clouds  
Wind Chill: 75°   Ceiling: Unl
Heat Index: 75°   Visibility: 6mi
Dew Point: 59°   Wind: 2mph
Humidity: 57%   Direction: 110°ESE
Pressure: 30.15"   Gusts: NA
Location:  23.07°N, 57.63°E
Report Text: EQMN 200652Z AUTO 11002KT 9000 FEW029 24/15 Q1021
Loading
Personal Weather Stations






























Interactive Weather Map New forecast layout! Learn more

10-Day Weather Forecast

Advertisements
Track Severe Weather on mobile